createdAt,value
2022-11-15T00:01:24.904Z,12.10
2022-11-15T00:04:11.157Z,12.57
2022-11-15T00:06:56.239Z,12.90
2022-11-15T00:09:45.802Z,12.63
2022-11-15T00:12:31.619Z,11.23
2022-11-15T00:15:16.671Z,11.73
2022-11-15T00:18:01.707Z,12.73
2022-11-15T00:20:47.128Z,11.87
2022-11-15T00:23:34.585Z,12.20
2022-11-15T00:26:19.752Z,11.57
2022-11-15T00:29:05.039Z,11.80
2022-11-15T00:31:50.993Z,12.30
2022-11-15T00:34:36.495Z,10.00
2022-11-15T00:37:21.413Z,11.20
2022-11-15T00:40:08.019Z,11.07
2022-11-15T00:42:52.996Z,11.30
2022-11-15T00:45:38.486Z,11.17
2022-11-15T00:48:23.858Z,10.27
2022-11-15T00:51:08.863Z,10.67
2022-11-15T00:53:54.076Z,10.80
2022-11-15T00:56:39.325Z,10.50
2022-11-15T00:59:24.816Z,10.80
2022-11-15T01:02:10.147Z,11.13
2022-11-15T01:04:55.554Z,10.47
2022-11-15T01:07:40.921Z,9.80
2022-11-15T01:10:26.833Z,10.10
2022-11-15T01:13:12.112Z,11.00
2022-11-15T01:15:57.407Z,11.33
2022-11-15T01:18:42.728Z,11.03
2022-11-15T01:21:27.661Z,10.00
2022-11-15T01:24:13.873Z,11.57
2022-11-15T01:26:59.478Z,10.93
2022-11-15T01:29:44.746Z,11.50
2022-11-15T01:32:30.526Z,11.27
2022-11-15T01:35:15.919Z,10.77
2022-11-15T01:38:00.963Z,10.33
2022-11-15T01:40:46.276Z,10.03
2022-11-15T01:43:37.530Z,9.83
2022-11-15T01:46:22.413Z,9.20
2022-11-15T01:49:15.689Z,9.50
2022-11-15T01:52:04.160Z,9.30
2022-11-15T01:55:04.438Z,9.60
2022-11-15T01:57:54.144Z,9.43
2022-11-15T02:00:39.942Z,10.27
2022-11-15T02:03:36.318Z,9.03
2022-11-15T02:06:23.435Z,9.50
2022-11-15T02:09:08.480Z,9.20
2022-11-15T02:11:55.728Z,9.00
2022-11-15T02:14:43.661Z,9.93
2022-11-15T02:17:47.731Z,9.47
2022-11-15T02:20:57.410Z,9.37
2022-11-15T02:23:58.039Z,8.80
2022-11-15T02:27:03.052Z,9.10
2022-11-15T02:30:07.137Z,9.07
2022-11-15T02:33:15.592Z,9.17
2022-11-15T02:36:03.576Z,8.77
2022-11-15T02:39:08.186Z,9.40
2022-11-15T02:42:00.062Z,8.50
2022-11-15T02:44:47.227Z,8.90
2022-11-15T02:47:39.087Z,9.50
2022-11-15T02:50:28.043Z,9.57
2022-11-15T02:53:15.516Z,10.50
2022-11-15T02:56:02.078Z,9.60
2022-11-15T02:59:08.560Z,9.00
2022-11-15T03:02:06.896Z,9.50
2022-11-15T03:04:59.157Z,9.00
2022-11-15T03:08:02.135Z,9.20
2022-11-15T03:11:09.972Z,9.00
2022-11-15T03:14:02.993Z,7.90
2022-11-15T03:17:13.631Z,7.80
2022-11-15T03:20:01.899Z,8.67
2022-11-15T03:22:49.215Z,8.47
2022-11-15T03:25:38.245Z,9.10
2022-11-15T03:28:31.146Z,8.97
2022-11-15T03:31:38.933Z,8.63
2022-11-15T03:34:32.775Z,8.93
2022-11-15T03:37:21.783Z,8.90
2022-11-15T03:40:07.846Z,8.60
2022-11-15T03:43:06.918Z,8.90
2022-11-15T03:46:05.373Z,9.53
2022-11-15T03:48:55.617Z,9.83
2022-11-15T03:51:41.215Z,8.50
2022-11-15T03:54:26.554Z,8.23
2022-11-15T03:57:12.230Z,7.80
2022-11-15T03:59:57.840Z,7.73
2022-11-15T04:02:43.324Z,7.70
2022-11-15T04:05:28.599Z,7.03
2022-11-15T04:08:13.981Z,5.60
2022-11-15T04:11:01.177Z,6.87
2022-11-15T04:13:47.489Z,7.60
2022-11-15T04:16:32.756Z,6.80
2022-11-15T04:19:36.530Z,7.33
2022-11-15T04:22:40.191Z,7.80
2022-11-15T04:25:31.094Z,6.50
2022-11-15T04:28:17.620Z,7.13
2022-11-15T04:31:02.573Z,8.17
2022-11-15T04:33:47.686Z,7.13
2022-11-15T04:36:51.513Z,7.47
2022-11-15T04:39:36.970Z,7.23
2022-11-15T04:42:22.296Z,7.20
2022-11-15T04:45:07.841Z,7.30
2022-11-15T04:47:53.166Z,7.17
2022-11-15T04:50:38.489Z,6.70
2022-11-15T04:53:24.191Z,7.10
2022-11-15T04:56:09.326Z,7.23
2022-11-15T04:58:55.385Z,7.50
2022-11-15T05:01:44.676Z,7.93
2022-11-15T05:04:30.343Z,7.73
2022-11-15T05:07:15.612Z,6.77
2022-11-15T05:10:00.743Z,7.83
2022-11-15T05:12:48.017Z,7.40
2022-11-15T05:15:33.014Z,8.30
2022-11-15T05:18:23.317Z,9.20
2022-11-15T05:21:11.981Z,8.83
2022-11-15T05:23:57.394Z,7.50
2022-11-15T05:26:42.928Z,8.27
2022-11-15T05:29:28.173Z,6.83
2022-11-15T05:32:14.183Z,6.70
2022-11-15T05:34:59.706Z,7.07
2022-11-15T05:37:45.603Z,7.10
2022-11-15T05:40:32.261Z,7.10
2022-11-15T05:43:17.696Z,9.37
2022-11-15T05:46:05.045Z,7.40
2022-11-15T05:48:52.182Z,9.00
2022-11-15T05:51:37.433Z,7.20
2022-11-15T05:54:24.239Z,7.47
2022-11-15T05:57:09.602Z,7.43
2022-11-15T05:59:56.087Z,8.33
2022-11-15T06:02:41.500Z,7.77
2022-11-15T06:05:26.840Z,6.90
2022-11-15T06:08:13.347Z,7.23
2022-11-15T06:11:04.911Z,7.30
2022-11-15T06:13:50.218Z,7.03
2022-11-15T06:16:36.389Z,7.57
2022-11-15T06:19:21.760Z,7.50
2022-11-15T06:22:06.821Z,6.77
2022-11-15T06:24:52.475Z,7.80
2022-11-15T06:27:37.686Z,7.33
2022-11-15T06:30:24.098Z,7.90
2022-11-15T06:33:09.786Z,6.80
2022-11-15T06:35:55.410Z,7.20
2022-11-15T06:38:40.640Z,6.60
2022-11-15T06:41:26.045Z,6.17
2022-11-15T06:44:11.162Z,6.60
2022-11-15T06:46:56.781Z,6.03
2022-11-15T06:49:42.203Z,6.10
2022-11-15T06:52:33.296Z,6.70
2022-11-15T06:55:18.524Z,5.97
2022-11-15T06:58:04.130Z,6.60
2022-11-15T07:00:49.617Z,7.17
2022-11-15T07:03:42.735Z,8.37
2022-11-15T07:06:27.669Z,6.53
2022-11-15T07:09:13.169Z,6.47
2022-11-15T07:12:02.024Z,7.07
2022-11-15T07:14:50.594Z,6.97
2022-11-15T07:17:35.884Z,7.30
2022-11-15T07:20:21.155Z,5.43
2022-11-15T07:23:06.716Z,5.30
2022-11-15T07:25:51.813Z,5.60
2022-11-15T07:28:37.215Z,4.90
2022-11-15T07:31:23.330Z,6.43
2022-11-15T07:34:09.438Z,5.50
2022-11-15T07:36:54.367Z,5.40
2022-11-15T07:39:39.897Z,5.43
2022-11-15T07:42:43.322Z,4.60
2022-11-15T07:45:29.182Z,5.13
2022-11-15T07:48:14.802Z,5.03
2022-11-15T07:51:00.002Z,4.83
2022-11-15T07:53:45.548Z,4.97
2022-11-15T07:56:30.627Z,5.30
2022-11-15T07:59:15.894Z,5.57
2022-11-15T08:02:01.581Z,5.07
2022-11-15T08:04:47.003Z,5.10
2022-11-15T08:07:32.550Z,4.57
2022-11-15T08:10:20.028Z,5.40
2022-11-15T08:13:10.907Z,5.57
2022-11-15T08:16:00.447Z,4.73
2022-11-15T08:18:46.134Z,4.90
2022-11-15T08:21:31.451Z,5.10
2022-11-15T08:24:16.643Z,4.50
2022-11-15T08:27:01.989Z,4.17
2022-11-15T08:29:49.454Z,4.70
2022-11-15T08:32:35.126Z,5.07
2022-11-15T08:35:26.145Z,4.60
2022-11-15T08:38:14.348Z,4.47
2022-11-15T08:41:04.904Z,4.70
2022-11-15T08:43:50.025Z,4.53
2022-11-15T08:46:35.667Z,5.17
2022-11-15T08:49:21.164Z,5.13
2022-11-15T08:52:06.751Z,5.20
2022-11-15T08:54:51.975Z,5.70
2022-11-15T08:57:37.454Z,4.60
2022-11-15T09:00:22.828Z,5.40
2022-11-15T09:03:10.034Z,4.20
2022-11-15T09:05:57.474Z,3.70
2022-11-15T09:08:49.550Z,4.63
2022-11-15T09:11:35.597Z,4.40
2022-11-15T09:14:20.519Z,4.33
2022-11-15T09:17:09.469Z,4.20
2022-11-15T09:19:54.497Z,4.20
2022-11-15T09:22:40.062Z,4.20
2022-11-15T09:25:25.201Z,4.40
2022-11-15T09:28:10.715Z,4.40
2022-11-15T09:31:00.991Z,4.33
2022-11-15T09:33:47.147Z,4.20
2022-11-15T09:36:32.851Z,3.87
2022-11-15T09:39:17.890Z,4.17
2022-11-15T09:42:23.377Z,4.20
2022-11-15T09:45:27.048Z,4.10
2022-11-15T09:48:47.446Z,4.00
2022-11-15T09:51:35.778Z,4.43
2022-11-15T09:54:37.938Z,4.40
2022-11-15T09:56:58.099Z,3.60
2022-11-15T09:59:45.839Z,4.40
2022-11-15T10:02:18.528Z,4.33
2022-11-15T10:04:45.704Z,3.97
2022-11-15T10:07:24.808Z,3.43
2022-11-15T10:09:58.143Z,3.30
2022-11-15T10:12:26.625Z,3.43
2022-11-15T10:15:04.673Z,4.00
2022-11-15T10:17:59.141Z,3.80
2022-11-15T10:20:29.045Z,3.77
2022-11-15T10:23:01.414Z,3.10
2022-11-15T10:25:30.504Z,3.30
2022-11-15T10:28:01.876Z,3.60
2022-11-15T10:30:40.374Z,3.50
2022-11-15T10:33:18.382Z,3.07
2022-11-15T10:35:45.406Z,3.30
2022-11-15T10:38:13.429Z,3.67
2022-11-15T10:40:42.613Z,3.27
2022-11-15T10:43:16.621Z,3.90
2022-11-15T10:45:43.930Z,3.27
2022-11-15T10:48:13.599Z,3.50
2022-11-15T10:50:42.373Z,3.70
2022-11-15T10:53:31.582Z,3.63
2022-11-15T10:56:03.946Z,3.40
2022-11-15T10:58:38.237Z,4.00
2022-11-15T11:01:10.653Z,3.30
2022-11-15T11:03:39.161Z,3.50
2022-11-15T11:06:08.790Z,3.40
2022-11-15T11:08:36.459Z,3.23
2022-11-15T11:11:04.750Z,2.80
2022-11-15T11:13:40.724Z,3.23
2022-11-15T11:16:16.989Z,3.93
2022-11-15T11:18:50.128Z,3.07
2022-11-15T11:21:40.221Z,3.37
2022-11-15T11:24:19.595Z,3.53
2022-11-15T11:27:30.958Z,3.67
2022-11-15T11:30:22.770Z,3.03
2022-11-15T11:33:07.697Z,3.00
2022-11-15T11:36:07.518Z,4.07
2022-11-15T11:38:39.917Z,3.40
2022-11-15T11:41:12.616Z,2.70
2022-11-15T11:43:53.409Z,3.77
2022-11-15T11:47:01.554Z,2.80
2022-11-15T11:49:40.269Z,3.23
2022-11-15T11:52:15.857Z,3.17
2022-11-15T11:55:03.859Z,3.03
2022-11-15T11:57:54.507Z,3.30
2022-11-15T12:00:23.672Z,3.23
2022-11-15T12:03:21.501Z,2.87
2022-11-15T12:05:55.007Z,2.43
2022-11-15T12:08:29.806Z,2.80
2022-11-15T12:11:15.777Z,2.50
2022-11-15T12:13:44.331Z,2.80
2022-11-15T12:16:32.990Z,2.20
2022-11-15T12:19:04.671Z,2.53
2022-11-15T12:21:48.412Z,2.33
2022-11-15T12:24:28.672Z,2.57
2022-11-15T12:27:06.559Z,2.20
2022-11-15T12:29:38.950Z,2.87
2022-11-15T12:32:33.744Z,2.67
2022-11-15T12:35:02.839Z,2.10
2022-11-15T12:37:41.512Z,2.13
2022-11-15T12:40:19.422Z,2.50
2022-11-15T12:43:15.481Z,2.00
2022-11-15T12:45:44.957Z,1.90
2022-11-15T12:48:17.570Z,1.87
2022-11-15T12:50:56.053Z,2.53
2022-11-15T12:53:25.447Z,2.17
2022-11-15T12:56:13.135Z,2.77
2022-11-15T12:58:47.249Z,2.77
2022-11-15T13:01:32.325Z,2.47
2022-11-15T13:04:20.939Z,2.37
2022-11-15T13:06:50.331Z,2.70
2022-11-15T13:09:35.112Z,2.20
2022-11-15T13:12:27.625Z,2.03
2022-11-15T13:15:22.773Z,2.27
2022-11-15T13:17:51.251Z,2.40
2022-11-15T13:20:19.877Z,2.37
2022-11-15T13:23:03.040Z,2.50
2022-11-15T13:26:06.749Z,2.10
2022-11-15T13:28:42.071Z,2.20
2022-11-15T13:31:22.380Z,2.23
2022-11-15T13:33:49.186Z,2.33
2022-11-15T13:36:30.334Z,2.13
2022-11-15T13:39:03.523Z,1.90
2022-11-15T13:41:33.554Z,1.93
2022-11-15T13:44:02.318Z,2.00
2022-11-15T13:46:28.873Z,2.40
2022-11-15T13:48:59.843Z,2.00
2022-11-15T13:51:32.285Z,2.20
2022-11-15T13:54:09.360Z,2.83
2022-11-15T13:56:37.266Z,2.20
2022-11-15T13:59:25.848Z,2.80
2022-11-15T14:01:53.744Z,2.83
2022-11-15T14:04:24.268Z,2.30
2022-11-15T14:06:56.151Z,2.13
2022-11-15T14:09:37.598Z,2.30
2022-11-15T14:12:33.850Z,2.37
2022-11-15T14:15:03.733Z,1.77
2022-11-15T14:17:30.206Z,2.03
2022-11-15T14:19:58.094Z,2.63
2022-11-15T14:22:26.955Z,2.10
2022-11-15T14:25:16.059Z,2.30
2022-11-15T14:27:45.063Z,2.00
2022-11-15T14:30:17.874Z,2.50
2022-11-15T14:32:50.139Z,1.87
2022-11-15T14:35:22.718Z,2.03
2022-11-15T14:37:49.908Z,1.70
2022-11-15T14:40:22.715Z,2.00
2022-11-15T14:42:50.833Z,1.57
2022-11-15T14:45:20.334Z,2.20
2022-11-15T14:47:47.151Z,1.73
2022-11-15T14:50:15.100Z,2.17
2022-11-15T14:52:42.138Z,2.17
2022-11-15T14:55:15.642Z,1.90
2022-11-15T14:57:42.464Z,2.23
2022-11-15T15:00:10.879Z,2.80
2022-11-15T15:02:41.844Z,2.33
2022-11-15T15:05:21.616Z,3.73
2022-11-15T15:07:48.741Z,5.43
2022-11-15T15:13:03.747Z,8.90
2022-11-15T15:15:38.630Z,9.57
2022-11-15T15:18:06.174Z,8.30
2022-11-15T15:20:33.567Z,10.53
2022-11-15T15:23:00.153Z,6.00
2022-11-15T15:25:29.491Z,3.60
2022-11-15T15:27:56.494Z,2.70
2022-11-15T15:30:24.722Z,4.07
2022-11-15T15:32:51.653Z,5.60
2022-11-15T15:35:19.651Z,4.40
2022-11-15T15:37:48.533Z,5.80
2022-11-15T15:40:18.146Z,3.30
2022-11-15T15:42:45.036Z,2.60
2022-11-15T15:45:12.328Z,2.40
2022-11-15T15:47:39.723Z,2.40
2022-11-15T15:50:21.755Z,3.00
2022-11-15T15:52:49.419Z,4.27
2022-11-15T15:55:16.084Z,4.57
2022-11-15T15:57:43.210Z,4.20
2022-11-15T16:00:11.055Z,5.57
2022-11-15T16:02:41.289Z,5.97
2022-11-15T16:05:08.949Z,6.57
2022-11-15T16:07:35.786Z,5.47
2022-11-15T16:10:04.081Z,5.47
2022-11-15T16:12:33.372Z,7.00
2022-11-15T16:15:02.652Z,16.43
2022-11-15T16:17:35.769Z,9.90
2022-11-15T16:20:02.735Z,8.83
2022-11-15T16:22:30.128Z,8.23
2022-11-15T16:24:57.354Z,6.07
2022-11-15T16:27:25.274Z,5.00
2022-11-15T16:29:51.858Z,4.60
2022-11-15T16:32:18.687Z,3.70
2022-11-15T16:34:49.054Z,3.70
2022-11-15T16:37:23.518Z,4.90
2022-11-15T16:39:50.602Z,3.33
2022-11-15T16:42:17.225Z,4.03
2022-11-15T16:44:45.460Z,3.87
2022-11-15T16:47:17.872Z,4.20
2022-11-15T16:49:45.285Z,3.80
2022-11-15T16:52:12.224Z,4.43
2022-11-15T16:54:38.872Z,4.23
2022-11-15T16:57:05.448Z,4.20
2022-11-15T16:59:38.135Z,5.40
2022-11-15T17:02:09.602Z,4.67
2022-11-15T17:04:36.312Z,4.70
2022-11-15T17:07:03.507Z,3.90
2022-11-15T17:09:30.890Z,4.90
2022-11-15T17:11:57.529Z,3.30
2022-11-15T17:14:24.098Z,5.10
2022-11-15T17:16:50.675Z,4.27
2022-11-15T17:19:19.241Z,4.50
2022-11-15T17:21:47.116Z,4.70
2022-11-15T17:24:13.981Z,6.27
2022-11-15T17:26:42.747Z,5.80
2022-11-15T17:29:09.566Z,5.77
2022-11-15T17:31:37.023Z,3.60
2022-11-15T17:34:05.384Z,3.67
2022-11-15T17:36:32.254Z,3.43
2022-11-15T17:39:00.008Z,4.80
2022-11-15T17:41:28.243Z,4.03
2022-11-15T17:43:59.992Z,4.70
2022-11-15T17:46:28.081Z,4.60
2022-11-15T17:48:55.875Z,3.50
2022-11-15T17:51:23.942Z,3.37
2022-11-15T17:53:51.419Z,3.47
2022-11-15T17:56:20.877Z,4.33
2022-11-15T17:58:52.557Z,6.40
2022-11-15T18:01:20.882Z,5.00
2022-11-15T18:03:48.056Z,5.20
2022-11-15T18:06:16.115Z,4.20
2022-11-15T18:08:44.371Z,4.30
2022-11-15T18:11:22.795Z,4.07
2022-11-15T18:13:52.636Z,3.90
2022-11-15T18:16:27.362Z,4.17
2022-11-15T18:18:54.942Z,3.90
2022-11-15T18:21:23.818Z,3.73
2022-11-15T18:23:55.326Z,4.53
2022-11-15T18:26:27.137Z,3.70
2022-11-15T18:28:56.257Z,4.00
2022-11-15T18:31:25.768Z,5.17
2022-11-15T18:33:53.427Z,4.63
2022-11-15T18:36:21.753Z,6.20
2022-11-15T18:38:48.493Z,5.77
2022-11-15T18:41:20.473Z,4.70
2022-11-15T18:43:50.689Z,4.43
2022-11-15T18:46:20.832Z,4.20
2022-11-15T18:48:50.516Z,4.40
2022-11-15T18:51:29.793Z,4.93
2022-11-15T18:53:58.448Z,5.00
2022-11-15T18:56:26.884Z,4.73
2022-11-15T18:58:55.794Z,4.13
2022-11-15T19:01:27.974Z,4.67
2022-11-15T19:03:56.736Z,5.33
2022-11-15T19:06:26.022Z,7.10
2022-11-15T19:08:56.515Z,5.70
2022-11-15T19:11:32.082Z,5.60
2022-11-15T19:14:05.314Z,7.70
2022-11-15T19:16:34.304Z,6.60
2022-11-15T19:19:03.406Z,6.77
2022-11-15T19:21:31.299Z,7.63
2022-11-15T19:23:59.219Z,5.73
2022-11-15T19:26:26.975Z,5.20
2022-11-15T19:28:58.876Z,5.63
2022-11-15T19:31:26.646Z,6.80
2022-11-15T19:33:54.256Z,5.47
2022-11-15T19:36:32.615Z,6.10
2022-11-15T19:39:01.940Z,5.23
2022-11-15T19:41:28.537Z,5.23
2022-11-15T19:43:55.438Z,4.20
2022-11-15T19:46:23.554Z,4.47
2022-11-15T19:48:51.471Z,5.53
2022-11-15T19:51:26.322Z,5.10
2022-11-15T19:53:54.460Z,5.00
2022-11-15T19:56:21.976Z,5.10
2022-11-15T19:58:53.901Z,4.70
2022-11-15T20:01:21.758Z,5.50
2022-11-15T20:03:50.054Z,4.40
2022-11-15T20:06:25.141Z,4.70
2022-11-15T20:08:51.952Z,5.03
2022-11-15T20:11:19.604Z,5.10
2022-11-15T20:13:47.211Z,5.00
2022-11-15T20:16:20.025Z,5.43
2022-11-15T20:18:48.222Z,5.77
2022-11-15T20:21:15.254Z,5.50
2022-11-15T20:23:42.634Z,5.10
2022-11-15T20:26:10.573Z,5.17
2022-11-15T20:28:38.861Z,4.57
2022-11-15T20:31:06.357Z,4.80
2022-11-15T20:33:34.002Z,4.90
2022-11-15T20:36:11.645Z,4.97
2022-11-15T20:38:38.273Z,4.23
2022-11-15T20:41:05.311Z,4.60
2022-11-15T20:43:31.890Z,9.60
2022-11-15T20:45:58.669Z,8.13
2022-11-15T20:48:25.289Z,8.20
2022-11-15T20:50:52.158Z,6.40
2022-11-15T20:53:20.186Z,6.50
2022-11-15T20:55:49.468Z,5.13
2022-11-15T20:58:17.418Z,4.10
2022-11-15T21:00:46.176Z,4.37
2022-11-15T21:03:14.320Z,3.23
2022-11-15T21:05:43.868Z,4.20
2022-11-15T21:08:11.715Z,3.70
2022-11-15T21:10:58.682Z,3.90
2022-11-15T21:13:26.021Z,3.83
2022-11-15T21:15:56.578Z,4.23
2022-11-15T21:18:23.308Z,4.13
2022-11-15T21:20:50.442Z,4.00
2022-11-15T21:23:17.030Z,4.07
2022-11-15T21:25:50.117Z,4.03
2022-11-15T21:28:17.410Z,3.70
2022-11-15T21:30:55.549Z,4.30
2022-11-15T21:33:24.214Z,4.20
2022-11-15T21:35:51.449Z,4.00
2022-11-15T21:38:18.198Z,3.70
2022-11-15T21:40:45.429Z,3.80
2022-11-15T21:43:12.506Z,3.67
2022-11-15T21:45:39.060Z,3.50
2022-11-15T21:48:06.092Z,3.50
2022-11-15T21:50:33.026Z,3.20
2022-11-15T21:52:59.987Z,3.60
2022-11-15T21:55:26.563Z,3.33
2022-11-15T21:57:53.130Z,3.50
2022-11-15T22:00:38.255Z,3.90
2022-11-15T22:03:04.810Z,4.10
2022-11-15T22:05:31.738Z,3.80
2022-11-15T22:07:58.261Z,3.90
2022-11-15T22:10:24.810Z,3.50
2022-11-15T22:12:51.332Z,3.93
2022-11-15T22:15:18.348Z,3.10
2022-11-15T22:17:59.893Z,3.10
2022-11-15T22:20:43.960Z,3.07
2022-11-15T22:23:11.330Z,2.90
2022-11-15T22:25:38.087Z,2.90
2022-11-15T22:28:04.770Z,2.93
2022-11-15T22:30:32.162Z,3.50
2022-11-15T22:32:58.722Z,3.60
2022-11-15T22:35:25.320Z,3.30
2022-11-15T22:37:52.720Z,3.00
2022-11-15T22:40:19.412Z,3.80
2022-11-15T22:42:45.994Z,3.70
2022-11-15T22:45:12.581Z,3.10
2022-11-15T22:47:39.119Z,3.33
2022-11-15T22:50:06.427Z,4.13
2022-11-15T22:52:33.192Z,3.93
2022-11-15T22:55:00.198Z,3.20
2022-11-15T22:57:26.777Z,4.47
2022-11-15T22:59:53.346Z,3.80
2022-11-15T23:02:19.915Z,3.60
2022-11-15T23:04:46.533Z,3.60
2022-11-15T23:07:13.584Z,4.00
2022-11-15T23:09:40.308Z,3.63
2022-11-15T23:12:27.067Z,3.73
2022-11-15T23:14:53.610Z,3.97
2022-11-15T23:17:20.682Z,3.80
2022-11-15T23:19:47.419Z,3.90
2022-11-15T23:22:32.746Z,4.30
2022-11-15T23:24:59.843Z,4.27
2022-11-15T23:27:27.321Z,3.30
2022-11-15T23:30:12.562Z,3.80
2022-11-15T23:32:58.336Z,4.20
2022-11-15T23:35:24.935Z,3.70
2022-11-15T23:37:51.994Z,4.40
2022-11-15T23:40:18.818Z,3.87
2022-11-15T23:42:45.542Z,4.20
2022-11-15T23:45:12.436Z,3.50
2022-11-15T23:47:39.373Z,5.77
2022-11-15T23:50:06.462Z,4.10
2022-11-15T23:52:33.082Z,3.77
2022-11-15T23:54:59.695Z,4.27
2022-11-15T23:57:26.277Z,4.03
2022-11-15T23:59:53.283Z,4.07
